sensor_id;sensor_type;location;lat;lon;timestamp;pressure;altitude;pressure_sealevel;temperature;humidity
10806;BME280;5455;53.224;6.000;2023-05-17T00:02:19;102400.19;;;8.85;100.00
10806;BME280;5455;53.224;6.000;2023-05-17T00:04:46;102404.16;;;8.79;100.00
10806;BME280;5455;53.224;6.000;2023-05-17T00:07:13;102398.78;;;8.74;100.00
10806;BME280;5455;53.224;6.000;2023-05-17T00:09:40;102407.94;;;8.69;100.00
10806;BME280;5455;53.224;6.000;2023-05-17T00:12:07;102406.94;;;8.65;100.00
10806;BME280;5455;53.224;6.000;2023-05-17T00:14:34;102401.88;;;8.59;100.00
10806;BME280;5455;53.224;6.000;2023-05-17T00:17:01;102407.25;;;8.64;100.00
10806;BME280;5455;53.224;6.000;2023-05-17T00:19:29;102396.03;;;8.74;100.00
10806;BME280;5455;53.224;6.000;2023-05-17T00:21:56;102402.13;;;8.84;100.00
10806;BME280;5455;53.224;6.000;2023-05-17T00:24:23;102402.72;;;8.95;100.00
10806;BME280;5455;53.224;6.000;2023-05-17T00:26:50;102401.16;;;9.03;100.00
10806;BME280;5455;53.224;6.000;2023-05-17T00:29:17;102414.09;;;9.02;100.00
10806;BME280;5455;53.224;6.000;2023-05-17T00:31:43;102408.97;;;9.09;100.00
10806;BME280;5455;53.224;6.000;2023-05-17T00:34:11;102409.81;;;9.10;100.00
10806;BME280;5455;53.224;6.000;2023-05-17T00:36:40;102409.41;;;9.03;100.00
10806;BME280;5455;53.224;6.000;2023-05-17T00:39:08;102404.31;;;8.96;100.00
10806;BME280;5455;53.224;6.000;2023-05-17T00:41:36;102404.25;;;8.88;100.00
10806;BME280;5455;53.224;6.000;2023-05-17T00:44:03;102398.34;;;8.80;100.00
10806;BME280;5455;53.224;6.000;2023-05-17T00:46:30;102399.56;;;8.74;100.00
10806;BME280;5455;53.224;6.000;2023-05-17T00:48:59;102395.72;;;8.75;100.00
10806;BME280;5455;53.224;6.000;2023-05-17T00:51:26;102400.03;;;8.68;100.00
10806;BME280;5455;53.224;6.000;2023-05-17T00:53:54;102397.69;;;8.61;100.00
10806;BME280;5455;53.224;6.000;2023-05-17T00:56:22;102401.53;;;8.60;100.00
10806;BME280;5455;53.224;6.000;2023-05-17T00:58:49;102402.78;;;8.54;100.00
10806;BME280;5455;53.224;6.000;2023-05-17T01:01:16;102403.72;;;8.50;100.00
10806;BME280;5455;53.224;6.000;2023-05-17T01:03:44;102411.22;;;8.44;100.00
10806;BME280;5455;53.224;6.000;2023-05-17T01:06:12;102409.09;;;8.41;100.00
10806;BME280;5455;53.224;6.000;2023-05-17T01:08:41;102406.97;;;8.38;100.00
10806;BME280;5455;53.224;6.000;2023-05-17T01:11:20;102411.94;;;8.36;100.00
10806;BME280;5455;53.224;6.000;2023-05-17T01:16:40;102401.34;;;8.29;100.00
10806;BME280;5455;53.224;6.000;2023-05-17T01:26:53;102407.53;;;8.21;100.00
10806;BME280;5455;53.224;6.000;2023-05-17T01:29:23;102405.13;;;8.20;100.00
10806;BME280;5455;53.224;6.000;2023-05-17T01:31:55;102404.78;;;8.21;100.00
10806;BME280;5455;53.224;6.000;2023-05-17T01:34:24;102414.47;;;8.19;100.00
10806;BME280;5455;53.224;6.000;2023-05-17T01:36:52;102405.41;;;8.18;100.00
10806;BME280;5455;53.224;6.000;2023-05-17T01:39:19;102410.47;;;8.11;100.00
10806;BME280;5455;53.224;6.000;2023-05-17T01:42:04;102424.63;;;8.05;100.00
10806;BME280;5455;53.224;6.000;2023-05-17T01:44:47;102422.19;;;8.03;100.00
10806;BME280;5455;53.224;6.000;2023-05-17T01:47:32;102424.63;;;8.05;100.00
10806;BME280;5455;53.224;6.000;2023-05-17T01:50:04;102421.34;;;8.03;100.00
10806;BME280;5455;53.224;6.000;2023-05-17T01:57:44;102421.75;;;7.96;100.00
10806;BME280;5455;53.224;6.000;2023-05-17T02:00:15;102434.47;;;7.92;100.00
10806;BME280;5455;53.224;6.000;2023-05-17T02:02:44;102417.69;;;7.94;100.00
10806;BME280;5455;53.224;6.000;2023-05-17T02:05:12;102425.41;;;7.92;100.00
10806;BME280;5455;53.224;6.000;2023-05-17T02:07:39;102425.91;;;7.94;100.00
10806;BME280;5455;53.224;6.000;2023-05-17T02:10:07;102426.34;;;8.01;100.00
10806;BME280;5455;53.224;6.000;2023-05-17T02:12:35;102428.38;;;8.09;100.00
10806;BME280;5455;53.224;6.000;2023-05-17T02:15:02;102434.09;;;8.12;100.00
10806;BME280;5455;53.224;6.000;2023-05-17T02:17:29;102430.44;;;8.17;100.00
10806;BME280;5455;53.224;6.000;2023-05-17T02:19:56;102434.91;;;8.13;100.00
10806;BME280;5455;53.224;6.000;2023-05-17T02:22:23;102432.38;;;8.16;100.00
10806;BME280;5455;53.224;6.000;2023-05-17T02:24:50;102435.22;;;8.25;100.00
10806;BME280;5455;53.224;6.000;2023-05-17T02:27:17;102445.84;;;8.32;100.00
10806;BME280;5455;53.224;6.000;2023-05-17T02:29:44;102454.38;;;8.30;100.00
10806;BME280;5455;53.224;6.000;2023-05-17T02:32:11;102450.06;;;8.24;100.00
10806;BME280;5455;53.224;6.000;2023-05-17T02:34:38;102453.97;;;8.23;100.00
10806;BME280;5455;53.224;6.000;2023-05-17T02:37:05;102450.06;;;8.24;100.00
10806;BME280;5455;53.224;6.000;2023-05-17T02:39:33;102459.97;;;8.25;100.00
10806;BME280;5455;53.224;6.000;2023-05-17T02:42:00;102456.91;;;8.26;100.00
10806;BME280;5455;53.224;6.000;2023-05-17T02:44:27;102457.94;;;8.30;100.00
10806;BME280;5455;53.224;6.000;2023-05-17T02:46:54;102458.06;;;8.39;100.00
10806;BME280;5455;53.224;6.000;2023-05-17T02:49:21;102460.09;;;8.47;100.00
10806;BME280;5455;53.224;6.000;2023-05-17T02:51:48;102460.50;;;8.54;100.00
10806;BME280;5455;53.224;6.000;2023-05-17T02:54:16;102465.09;;;8.59;100.00
10806;BME280;5455;53.224;6.000;2023-05-17T02:56:42;102466.09;;;8.63;100.00
10806;BME280;5455;53.224;6.000;2023-05-17T02:59:10;102467.41;;;8.65;100.00
10806;BME280;5455;53.224;6.000;2023-05-17T03:01:40;102470.28;;;8.60;100.00
10806;BME280;5455;53.224;6.000;2023-05-17T03:04:07;102475.38;;;8.53;100.00
10806;BME280;5455;53.224;6.000;2023-05-17T03:06:36;102462.34;;;8.45;100.00
10806;BME280;5455;53.224;6.000;2023-05-17T03:09:03;102472.84;;;8.43;100.00
10806;BME280;5455;53.224;6.000;2023-05-17T03:11:30;102474.56;;;8.39;100.00
10806;BME280;5455;53.224;6.000;2023-05-17T03:14:01;102478.50;;;8.33;100.00
10806;BME280;5455;53.224;6.000;2023-05-17T03:16:30;102481.19;;;8.38;100.00
10806;BME280;5455;53.224;6.000;2023-05-17T03:18:58;102478.31;;;8.43;100.00
10806;BME280;5455;53.224;6.000;2023-05-17T03:21:25;102483.81;;;8.43;100.00
10806;BME280;5455;53.224;6.000;2023-05-17T03:23:52;102485.44;;;8.44;100.00
10806;BME280;5455;53.224;6.000;2023-05-17T03:26:18;102491.97;;;8.48;100.00
10806;BME280;5455;53.224;6.000;2023-05-17T03:28:50;102496.66;;;8.48;100.00
10806;BME280;5455;53.224;6.000;2023-05-17T03:31:17;102490.94;;;8.44;100.00
10806;BME280;5455;53.224;6.000;2023-05-17T03:33:45;102496.16;;;8.46;100.00
10806;BME280;5455;53.224;6.000;2023-05-17T03:36:14;102498.69;;;8.42;100.00
10806;BME280;5455;53.224;6.000;2023-05-17T03:38:41;102504.19;;;8.42;100.00
10806;BME280;5455;53.224;6.000;2023-05-17T03:41:09;102516.41;;;8.50;100.00
10806;BME280;5455;53.224;6.000;2023-05-17T03:43:37;102512.75;;;8.54;100.00
10806;BME280;5455;53.224;6.000;2023-05-17T03:46:05;102504.72;;;8.58;100.00
10806;BME280;5455;53.224;6.000;2023-05-17T03:48:31;102512.22;;;8.66;100.00
10806;BME280;5455;53.224;6.000;2023-05-17T03:51:02;102522.34;;;8.70;100.00
10806;BME280;5455;53.224;6.000;2023-05-17T03:53:29;102521.19;;;8.71;100.00
10806;BME280;5455;53.224;6.000;2023-05-17T03:55:57;102519.47;;;8.75;100.00
10806;BME280;5455;53.224;6.000;2023-05-17T03:58:24;102527.72;;;8.75;100.00
10806;BME280;5455;53.224;6.000;2023-05-17T04:00:51;102528.53;;;8.76;100.00
10806;BME280;5455;53.224;6.000;2023-05-17T04:03:19;102528.22;;;8.77;100.00
10806;BME280;5455;53.224;6.000;2023-05-17T04:05:47;102535.06;;;8.80;100.00
10806;BME280;5455;53.224;6.000;2023-05-17T04:08:14;102527.31;;;8.82;100.00
10806;BME280;5455;53.224;6.000;2023-05-17T04:10:42;102533.66;;;8.82;100.00
10806;BME280;5455;53.224;6.000;2023-05-17T04:13:09;102542.09;;;8.86;100.00
10806;BME280;5455;53.224;6.000;2023-05-17T04:15:37;102545.44;;;8.97;100.00
10806;BME280;5455;53.224;6.000;2023-05-17T04:18:06;102546.75;;;8.99;100.00
10806;BME280;5455;53.224;6.000;2023-05-17T04:20:33;102551.16;;;9.00;100.00
10806;BME280;5455;53.224;6.000;2023-05-17T04:23:00;102549.09;;;9.06;100.00
10806;BME280;5455;53.224;6.000;2023-05-17T04:25:30;102549.72;;;9.03;100.00
10806;BME280;5455;53.224;6.000;2023-05-17T04:27:57;102552.34;;;9.08;100.00
10806;BME280;5455;53.224;6.000;2023-05-17T04:30:25;102558.28;;;9.15;100.00
10806;BME280;5455;53.224;6.000;2023-05-17T04:32:52;102566.13;;;9.21;100.00
10806;BME280;5455;53.224;6.000;2023-05-17T04:35:19;102569.69;;;9.22;100.00
10806;BME280;5455;53.224;6.000;2023-05-17T04:37:49;102572.53;;;9.17;100.00
10806;BME280;5455;53.224;6.000;2023-05-17T04:40:20;102581.41;;;9.27;100.00
10806;BME280;5455;53.224;6.000;2023-05-17T04:42:48;102582.00;;;9.38;100.00
10806;BME280;5455;53.224;6.000;2023-05-17T04:45:15;102585.75;;;9.42;100.00
10806;BME280;5455;53.224;6.000;2023-05-17T04:47:43;102587.69;;;9.41;100.00
10806;BME280;5455;53.224;6.000;2023-05-17T04:50:11;102590.44;;;9.41;100.00
10806;BME280;5455;53.224;6.000;2023-05-17T04:52:38;102591.97;;;9.48;100.00
10806;BME280;5455;53.224;6.000;2023-05-17T04:55:07;102593.06;;;9.60;100.00
10806;BME280;5455;53.224;6.000;2023-05-17T04:57:36;102588.75;;;9.68;99.61
10806;BME280;5455;53.224;6.000;2023-05-17T05:00:05;102603.84;;;9.70;99.60
10806;BME280;5455;53.224;6.000;2023-05-17T05:02:34;102610.28;;;9.66;97.30
10806;BME280;5455;53.224;6.000;2023-05-17T05:05:03;102612.63;;;9.72;96.35
10806;BME280;5455;53.224;6.000;2023-05-17T05:07:31;102617.78;;;9.87;96.32
10806;BME280;5455;53.224;6.000;2023-05-17T05:09:59;102620.22;;;9.89;95.00
10806;BME280;5455;53.224;6.000;2023-05-17T05:12:27;102626.25;;;9.91;93.13
10806;BME280;5455;53.224;6.000;2023-05-17T05:14:54;102626.13;;;9.96;93.46
10806;BME280;5455;53.224;6.000;2023-05-17T05:17:22;102637.78;;;9.93;91.38
10806;BME280;5455;53.224;6.000;2023-05-17T05:19:50;102635.44;;;9.86;92.19
10806;BME280;5455;53.224;6.000;2023-05-17T05:22:18;102649.84;;;9.83;92.38
10806;BME280;5455;53.224;6.000;2023-05-17T05:24:45;102642.50;;;9.79;92.04
10806;BME280;5455;53.224;6.000;2023-05-17T05:27:12;102640.75;;;9.83;91.95
10806;BME280;5455;53.224;6.000;2023-05-17T05:29:39;102653.91;;;9.86;91.48
10806;BME280;5455;53.224;6.000;2023-05-17T05:32:09;102658.09;;;9.97;89.64
10806;BME280;5455;53.224;6.000;2023-05-17T05:34:41;102654.53;;;10.19;90.13
10806;BME280;5455;53.224;6.000;2023-05-17T05:37:08;102661.56;;;10.25;88.68
10806;BME280;5455;53.224;6.000;2023-05-17T05:39:36;102661.28;;;10.13;90.24
10806;BME280;5455;53.224;6.000;2023-05-17T05:42:03;102667.34;;;10.15;89.49
10806;BME280;5455;53.224;6.000;2023-05-17T05:44:30;102664.03;;;10.13;90.13
10806;BME280;5455;53.224;6.000;2023-05-17T05:46:58;102669.88;;;10.11;88.32
10806;BME280;5455;53.224;6.000;2023-05-17T05:49:26;102677.66;;;9.95;86.06
10806;BME280;5455;53.224;6.000;2023-05-17T05:51:53;102678.28;;;9.92;86.98
10806;BME280;5455;53.224;6.000;2023-05-17T05:54:20;102680.00;;;10.02;88.31
10806;BME280;5455;53.224;6.000;2023-05-17T05:56:48;102686.09;;;10.26;87.24
10806;BME280;5455;53.224;6.000;2023-05-17T05:59:18;102695.81;;;10.46;85.79
10806;BME280;5455;53.224;6.000;2023-05-17T06:01:45;102696.69;;;10.55;81.80
10806;BME280;5455;53.224;6.000;2023-05-17T06:04:13;102698.50;;;10.60;81.46
10806;BME280;5455;53.224;6.000;2023-05-17T06:06:40;102704.97;;;10.33;80.37
10806;BME280;5455;53.224;6.000;2023-05-17T06:09:07;102699.50;;;10.06;81.37
10806;BME280;5455;53.224;6.000;2023-05-17T06:11:37;102709.28;;;9.98;83.86
10806;BME280;5455;53.224;6.000;2023-05-17T06:14:06;102705.59;;;10.16;81.10
10806;BME280;5455;53.224;6.000;2023-05-17T06:16:33;102706.91;;;10.32;78.49
10806;BME280;5455;53.224;6.000;2023-05-17T06:19:01;102714.69;;;10.30;77.34
10806;BME280;5455;53.224;6.000;2023-05-17T06:21:28;102716.50;;;10.57;77.26
10806;BME280;5455;53.224;6.000;2023-05-17T06:23:56;102714.97;;;10.73;76.49
10806;BME280;5455;53.224;6.000;2023-05-17T06:26:23;102726.53;;;10.75;76.85
10806;BME280;5455;53.224;6.000;2023-05-17T06:28:50;102724.78;;;10.57;76.17
10806;BME280;5455;53.224;6.000;2023-05-17T06:31:17;102730.56;;;10.69;77.90
10806;BME280;5455;53.224;6.000;2023-05-17T06:33:46;102732.22;;;10.79;76.67
10806;BME280;5455;53.224;6.000;2023-05-17T06:36:13;102737.88;;;10.74;76.32
10806;BME280;5455;53.224;6.000;2023-05-17T06:38:40;102752.44;;;10.66;75.39
10806;BME280;5455;53.224;6.000;2023-05-17T06:41:07;102758.44;;;10.68;76.55
10806;BME280;5455;53.224;6.000;2023-05-17T06:43:34;102751.97;;;10.94;76.43
10806;BME280;5455;53.224;6.000;2023-05-17T06:46:03;102759.25;;;11.13;74.92
10806;BME280;5455;53.224;6.000;2023-05-17T06:48:30;102764.13;;;11.16;74.30
10806;BME280;5455;53.224;6.000;2023-05-17T06:50:57;102762.50;;;11.15;74.33
10806;BME280;5455;53.224;6.000;2023-05-17T06:53:24;102768.00;;;11.15;71.90
10806;BME280;5455;53.224;6.000;2023-05-17T06:55:52;102765.81;;;11.03;72.32
10806;BME280;5455;53.224;6.000;2023-05-17T06:58:19;102775.75;;;11.04;72.35
10806;BME280;5455;53.224;6.000;2023-05-17T07:00:46;102780.00;;;10.88;70.46
10806;BME280;5455;53.224;6.000;2023-05-17T07:03:13;102781.72;;;10.75;70.46
10806;BME280;5455;53.224;6.000;2023-05-17T07:05:40;102786.72;;;10.73;70.15
10806;BME280;5455;53.224;6.000;2023-05-17T07:08:07;102784.97;;;10.77;68.69
10806;BME280;5455;53.224;6.000;2023-05-17T07:10:34;102783.53;;;11.02;67.55
10806;BME280;5455;53.224;6.000;2023-05-17T07:13:01;102784.19;;;11.30;66.15
10806;BME280;5455;53.224;6.000;2023-05-17T07:15:29;102773.06;;;11.43;65.41
10806;BME280;5455;53.224;6.000;2023-05-17T07:17:56;102784.19;;;11.60;67.86
10806;BME280;5455;53.224;6.000;2023-05-17T07:20:25;102782.53;;;11.99;65.60
10806;BME280;5455;53.224;6.000;2023-05-17T07:22:52;102789.50;;;11.79;65.38
10806;BME280;5455;53.224;6.000;2023-05-17T07:25:19;102792.16;;;11.62;65.21
10806;BME280;5455;53.224;6.000;2023-05-17T07:27:47;102787.53;;;11.49;65.96
10806;BME280;5455;53.224;6.000;2023-05-17T07:30:14;102783.84;;;11.53;67.23
10806;BME280;5455;53.224;6.000;2023-05-17T07:32:41;102794.59;;;11.63;67.67
10806;BME280;5455;53.224;6.000;2023-05-17T07:35:08;102787.47;;;11.63;68.77
10806;BME280;5455;53.224;6.000;2023-05-17T07:37:36;102798.75;;;11.44;69.32
10806;BME280;5455;53.224;6.000;2023-05-17T07:40:03;102800.41;;;11.23;70.01
10806;BME280;5455;53.224;6.000;2023-05-17T07:42:32;102798.47;;;11.23;71.65
10806;BME280;5455;53.224;6.000;2023-05-17T07:44:59;102805.16;;;11.31;72.87
10806;BME280;5455;53.224;6.000;2023-05-17T07:47:26;102802.78;;;11.38;73.85
10806;BME280;5455;53.224;6.000;2023-05-17T07:49:54;102816.56;;;11.38;74.19
10806;BME280;5455;53.224;6.000;2023-05-17T07:52:21;102814.69;;;11.47;76.41
10806;BME280;5455;53.224;6.000;2023-05-17T07:54:48;102811.81;;;11.91;76.57
10806;BME280;5455;53.224;6.000;2023-05-17T07:57:15;102812.38;;;12.19;74.32
10806;BME280;5455;53.224;6.000;2023-05-17T07:59:41;102811.19;;;12.03;77.43
10806;BME280;5455;53.224;6.000;2023-05-17T08:02:09;102818.38;;;12.12;77.89
10806;BME280;5455;53.224;6.000;2023-05-17T08:04:36;102832.69;;;12.14;76.95
10806;BME280;5455;53.224;6.000;2023-05-17T08:07:03;102835.34;;;12.28;74.79
10806;BME280;5455;53.224;6.000;2023-05-17T08:09:30;102828.84;;;12.33;74.03
10806;BME280;5455;53.224;6.000;2023-05-17T08:11:57;102828.19;;;12.44;74.51
10806;BME280;5455;53.224;6.000;2023-05-17T08:14:24;102838.16;;;12.54;73.30
10806;BME280;5455;53.224;6.000;2023-05-17T08:16:52;102834.56;;;12.45;71.31
10806;BME280;5455;53.224;6.000;2023-05-17T08:19:19;102840.88;;;12.28;67.85
10806;BME280;5455;53.224;6.000;2023-05-17T08:21:46;102838.81;;;11.94;67.45
10806;BME280;5455;53.224;6.000;2023-05-17T08:24:14;102850.59;;;12.17;67.71
10806;BME280;5455;53.224;6.000;2023-05-17T08:26:43;102841.69;;;12.29;66.65
10806;BME280;5455;53.224;6.000;2023-05-17T08:29:10;102839.28;;;12.53;67.41
10806;BME280;5455;53.224;6.000;2023-05-17T08:31:37;102849.22;;;12.71;65.13
10806;BME280;5455;53.224;6.000;2023-05-17T08:34:04;102854.59;;;12.59;64.97
10806;BME280;5455;53.224;6.000;2023-05-17T08:36:32;102857.63;;;12.32;64.81
10806;BME280;5455;53.224;6.000;2023-05-17T08:39:00;102843.50;;;12.33;65.63
10806;BME280;5455;53.224;6.000;2023-05-17T08:41:27;102859.16;;;12.63;64.01
10806;BME280;5455;53.224;6.000;2023-05-17T08:43:56;102857.75;;;13.17;63.49
10806;BME280;5455;53.224;6.000;2023-05-17T08:46:25;102859.34;;;13.36;60.52
10806;BME280;5455;53.224;6.000;2023-05-17T08:48:54;102868.00;;;13.25;58.38
10806;BME280;5455;53.224;6.000;2023-05-17T08:51:26;102867.16;;;13.25;60.91
10806;BME280;5455;53.224;6.000;2023-05-17T08:53:54;102866.34;;;13.07;60.03
10806;BME280;5455;53.224;6.000;2023-05-17T08:56:22;102868.00;;;13.00;59.21
10806;BME280;5455;53.224;6.000;2023-05-17T08:58:53;102863.47;;;13.12;57.91
10806;BME280;5455;53.224;6.000;2023-05-17T09:01:24;102867.16;;;12.99;58.63
10806;BME280;5455;53.224;6.000;2023-05-17T09:03:53;102857.75;;;13.09;57.04
10806;BME280;5455;53.224;6.000;2023-05-17T09:06:22;102874.53;;;13.12;57.21
10806;BME280;5455;53.224;6.000;2023-05-17T09:08:50;102862.13;;;13.10;58.02
10806;BME280;5455;53.224;6.000;2023-05-17T09:13:56;102871.56;;;13.98;58.63
10806;BME280;5455;53.224;6.000;2023-05-17T09:16:24;102883.06;;;13.71;57.42
10806;BME280;5455;53.224;6.000;2023-05-17T09:18:56;102881.19;;;13.20;58.41
10806;BME280;5455;53.224;6.000;2023-05-17T09:21:24;102878.28;;;13.34;58.74
10806;BME280;5455;53.224;6.000;2023-05-17T09:23:53;102882.03;;;13.20;58.81
10806;BME280;5455;53.224;6.000;2023-05-17T09:26:44;102891.63;;;13.32;57.97
10806;BME280;5455;53.224;6.000;2023-05-17T09:29:13;102891.97;;;13.30;56.70
10806;BME280;5455;53.224;6.000;2023-05-17T09:31:41;102894.56;;;13.27;56.73
10806;BME280;5455;53.224;6.000;2023-05-17T09:34:09;102891.94;;;14.02;57.17
10806;BME280;5455;53.224;6.000;2023-05-17T09:36:37;102903.72;;;14.37;54.24
10806;BME280;5455;53.224;6.000;2023-05-17T09:39:08;102896.47;;;14.07;54.16
10806;BME280;5455;53.224;6.000;2023-05-17T09:41:45;102901.50;;;14.13;51.91
10806;BME280;5455;53.224;6.000;2023-05-17T09:44:14;102898.06;;;13.78;52.11
10806;BME280;5455;53.224;6.000;2023-05-17T09:46:46;102893.66;;;14.15;53.55
10806;BME280;5455;53.224;6.000;2023-05-17T09:49:15;102903.78;;;14.99;52.26
10806;BME280;5455;53.224;6.000;2023-05-17T09:51:45;102909.84;;;14.51;51.39
10806;BME280;5455;53.224;6.000;2023-05-17T09:54:12;102901.28;;;14.36;51.47
10806;BME280;5455;53.224;6.000;2023-05-17T09:56:40;102900.84;;;13.78;52.22
10806;BME280;5455;53.224;6.000;2023-05-17T09:59:12;102896.59;;;13.64;52.64
10806;BME280;5455;53.224;6.000;2023-05-17T10:01:41;102904.38;;;14.34;54.76
10806;BME280;5455;53.224;6.000;2023-05-17T10:04:09;102918.50;;;14.50;52.60
10806;BME280;5455;53.224;6.000;2023-05-17T10:06:40;102917.13;;;13.80;53.36
10806;BME280;5455;53.224;6.000;2023-05-17T10:09:16;102908.75;;;13.97;54.48
10806;BME280;5455;53.224;6.000;2023-05-17T10:11:45;102907.50;;;13.86;54.31
10806;BME280;5455;53.224;6.000;2023-05-17T10:14:26;102908.97;;;13.84;55.90
10806;BME280;5455;53.224;6.000;2023-05-17T10:16:54;102902.03;;;14.07;56.43
10806;BME280;5455;53.224;6.000;2023-05-17T10:19:23;102904.88;;;14.27;55.55
10806;BME280;5455;53.224;6.000;2023-05-17T10:21:52;102913.50;;;13.88;56.24
10806;BME280;5455;53.224;6.000;2023-05-17T10:24:19;102913.44;;;13.59;56.81
10806;BME280;5455;53.224;6.000;2023-05-17T10:26:50;102917.03;;;14.14;57.46
10806;BME280;5455;53.224;6.000;2023-05-17T10:29:18;102911.16;;;14.07;58.73
10806;BME280;5455;53.224;6.000;2023-05-17T10:31:48;102925.72;;;14.42;59.56
10806;BME280;5455;53.224;6.000;2023-05-17T10:34:19;102920.34;;;13.99;58.02
10806;BME280;5455;53.224;6.000;2023-05-17T10:36:48;102922.00;;;13.83;59.64
10806;BME280;5455;53.224;6.000;2023-05-17T10:39:15;102921.56;;;13.72;59.96
10806;BME280;5455;53.224;6.000;2023-05-17T10:41:45;102920.38;;;13.82;59.69
10806;BME280;5455;53.224;6.000;2023-05-17T10:44:15;102913.03;;;13.86;59.02
10806;BME280;5455;53.224;6.000;2023-05-17T10:47:09;102920.34;;;13.99;59.05
10806;BME280;5455;53.224;6.000;2023-05-17T10:49:37;102923.03;;;13.78;59.80
10806;BME280;5455;53.224;6.000;2023-05-17T10:52:17;102928.06;;;13.76;59.25
10806;BME280;5455;53.224;6.000;2023-05-17T10:54:47;102924.47;;;13.76;59.79
10806;BME280;5455;53.224;6.000;2023-05-17T10:57:20;102923.25;;;14.11;58.42
10806;BME280;5455;53.224;6.000;2023-05-17T10:59:58;102925.31;;;14.23;58.17
10806;BME280;5455;53.224;6.000;2023-05-17T11:02:27;102925.38;;;13.97;58.21
10806;BME280;5455;53.224;6.000;2023-05-17T11:04:54;102921.50;;;13.90;58.59
10806;BME280;5455;53.224;6.000;2023-05-17T11:07:25;102925.16;;;14.19;59.15
10806;BME280;5455;53.224;6.000;2023-05-17T11:10:09;102925.16;;;14.57;57.93
10806;BME280;5455;53.224;6.000;2023-05-17T11:15:13;102933.34;;;14.83;57.76
10806;BME280;5455;53.224;6.000;2023-05-17T11:22:49;102931.41;;;14.08;58.37
10806;BME280;5455;53.224;6.000;2023-05-17T11:25:17;102926.88;;;13.95;57.65
10806;BME280;5455;53.224;6.000;2023-05-17T11:27:46;102935.41;;;13.81;57.09
10806;BME280;5455;53.224;6.000;2023-05-17T11:30:18;102934.13;;;13.61;57.75
10806;BME280;5455;53.224;6.000;2023-05-17T11:32:52;102919.47;;;14.16;57.49
10806;BME280;5455;53.224;6.000;2023-05-17T11:35:24;102929.44;;;14.08;55.40
10806;BME280;5455;53.224;6.000;2023-05-17T11:37:52;102940.59;;;13.82;55.91
10806;BME280;5455;53.224;6.000;2023-05-17T11:40:24;102931.59;;;13.94;57.15
10806;BME280;5455;53.224;6.000;2023-05-17T11:43:21;102924.50;;;14.22;55.46
10806;BME280;5455;53.224;6.000;2023-05-17T11:45:50;102925.09;;;14.37;54.71
10806;BME280;5455;53.224;6.000;2023-05-17T11:48:21;102936.56;;;13.71;54.84
10806;BME280;5455;53.224;6.000;2023-05-17T11:50:51;102943.41;;;13.05;57.92
10806;BME280;5455;53.224;6.000;2023-05-17T11:53:19;102939.38;;;13.11;57.37
10806;BME280;5455;53.224;6.000;2023-05-17T11:55:48;102925.69;;;13.23;56.32
10806;BME280;5455;53.224;6.000;2023-05-17T11:58:23;102930.53;;;13.69;54.88
10806;BME280;5455;53.224;6.000;2023-05-17T12:00:52;102923.56;;;13.55;54.65
10806;BME280;5455;53.224;6.000;2023-05-17T12:03:29;102934.97;;;13.45;54.66
10806;BME280;5455;53.224;6.000;2023-05-17T12:06:06;102932.38;;;13.40;54.27
10806;BME280;5455;53.224;6.000;2023-05-17T12:08:35;102928.94;;;13.08;54.78
10806;BME280;5455;53.224;6.000;2023-05-17T12:11:04;102909.72;;;13.20;54.44
10806;BME280;5455;53.224;6.000;2023-05-17T12:13:33;102917.44;;;13.87;55.15
10806;BME280;5455;53.224;6.000;2023-05-17T12:16:03;102924.78;;;14.29;54.35
10806;BME280;5455;53.224;6.000;2023-05-17T12:21:07;102915.09;;;13.51;53.71
10806;BME280;5455;53.224;6.000;2023-05-17T12:23:36;102917.44;;;13.87;53.76
10806;BME280;5455;53.224;6.000;2023-05-17T12:26:16;102919.53;;;13.99;53.52
10806;BME280;5455;53.224;6.000;2023-05-17T12:28:51;102914.25;;;14.14;53.42
10806;BME280;5455;53.224;6.000;2023-05-17T12:31:23;102933.22;;;14.04;50.74
10806;BME280;5455;53.224;6.000;2023-05-17T12:33:51;102915.97;;;14.27;51.47
10806;BME280;5455;53.224;6.000;2023-05-17T12:36:19;102923.03;;;14.54;48.69
10806;BME280;5455;53.224;6.000;2023-05-17T12:38:47;102905.19;;;14.34;50.88
10806;BME280;5455;53.224;6.000;2023-05-17T12:41:15;102915.69;;;14.20;52.27
10806;BME280;5455;53.224;6.000;2023-05-17T12:43:43;102928.63;;;14.08;51.49
10806;BME280;5455;53.224;6.000;2023-05-17T12:46:13;102910.16;;;14.20;51.31
10806;BME280;5455;53.224;6.000;2023-05-17T12:48:41;102911.38;;;14.31;49.81
10806;BME280;5455;53.224;6.000;2023-05-17T12:51:11;102925.16;;;14.19;49.99
10806;BME280;5455;53.224;6.000;2023-05-17T12:54:04;102920.75;;;13.72;50.19
10806;BME280;5455;53.224;6.000;2023-05-17T12:56:31;102921.38;;;14.24;51.07
10806;BME280;5455;53.224;6.000;2023-05-17T13:01:42;102926.53;;;14.43;50.49
10806;BME280;5455;53.224;6.000;2023-05-17T13:04:11;102930.66;;;14.37;49.90
10806;BME280;5455;53.224;6.000;2023-05-17T13:06:53;102920.03;;;14.30;49.92
10806;BME280;5455;53.224;6.000;2023-05-17T13:09:21;102921.19;;;14.38;49.07
10806;BME280;5455;53.224;6.000;2023-05-17T13:12:08;102913.97;;;13.99;49.55
10806;BME280;5455;53.224;6.000;2023-05-17T13:14:40;102921.38;;;14.32;51.23
10806;BME280;5455;53.224;6.000;2023-05-17T13:19:43;102942.56;;;14.75;49.48
10806;BME280;5455;53.224;6.000;2023-05-17T13:22:10;102918.66;;;14.53;49.43
10806;BME280;5455;53.224;6.000;2023-05-17T13:24:37;102910.75;;;14.64;50.37
10806;BME280;5455;53.224;6.000;2023-05-17T13:27:06;102920.81;;;14.98;49.73
10806;BME280;5455;53.224;6.000;2023-05-17T13:29:36;102926.81;;;15.20;48.75
10806;BME280;5455;53.224;6.000;2023-05-17T13:32:07;102924.97;;;14.62;50.28
10806;BME280;5455;53.224;6.000;2023-05-17T13:34:35;102923.47;;;13.89;51.60
10806;BME280;5455;53.224;6.000;2023-05-17T13:37:03;102909.03;;;14.13;51.88
10806;BME280;5455;53.224;6.000;2023-05-17T13:39:30;102910.91;;;14.88;48.83
10806;BME280;5455;53.224;6.000;2023-05-17T13:41:57;102921.28;;;15.41;49.68
10806;BME280;5455;53.224;6.000;2023-05-17T13:44:24;102919.84;;;15.14;47.84